This is the latest recevied weather packets stored in our database for station/object IK0XIH-3. If no packets are shown the sender has not sent any weather packets the latest 10 day(s).
| Time | Temp. | Humidity | Pressure | Rain* | Wind** | Luminosity | Snow |
|---|---|---|---|---|---|---|---|
| 1778240904 | 20° C | 73% | 1010.3 hPa | 0 mm | - | - | - |
| 1778240601 | 20° C | 74% | 1010.2 hPa | 0 mm | - | - | - |
| 1778240304 | 20° C | 74% | 1010.2 hPa | 0 mm | - | - | - |
| 1778240004 | 20° C | 74% | 1010.2 hPa | 0 mm | - | - | - |
| 1778239701 | 20.56° C | 74% | 1010 hPa | 0 mm | - | - | - |
| 1778239401 | 20.56° C | 75% | 1010 hPa | 0 mm | - | - | - |
| 1778239101 | 20.56° C | 75% | 1010 hPa | 0 mm | - | - | - |
| 1778238801 | 20.56° C | 75% | 1009.8 hPa | 0 mm | - | - | - |
| 1778238503 | 20.56° C | 74% | 1009.8 hPa | 0 mm | - | - | - |
| 1778238204 | 21.11° C | 72% | 1009.8 hPa | 0 mm | - | - | - |
| 1778237900 | 21.67° C | 69% | 1009.8 hPa | 0 mm | - | - | - |
| 1778237601 | 21.67° C | 66% | 1009.8 hPa | 0 mm | - | - | - |
| 1778237300 | 21.67° C | 65% | 1009.8 hPa | 0 mm | - | - | - |
| 1778237004 | 21.67° C | 66% | 1009.8 hPa | 0 mm | - | - | - |
| 1778236703 | 21.67° C | 69% | 1009.8 hPa | 0 mm | - | - | - |
| 1778236400 | 21.11° C | 68% | 1009.8 hPa | 0 mm | - | - | - |
| 1778236104 | 21.67° C | 66% | 1009.8 hPa | 0 mm | - | - | - |
| 1778235803 | 22.22° C | 62% | 1009.8 hPa | 0 mm | - | - | - |
| 1778235500 | 22.22° C | 62% | 1009.8 hPa | 0 mm | - | - | - |
| 1778235203 | 22.22° C | 62% | 1009.7 hPa | 0 mm | - | - | - |
| 1778234900 | 21.67° C | 65% | 1009.7 hPa | 0 mm | - | - | - |
| 1778234600 | 21.67° C | 64% | 1009.7 hPa | 0 mm | - | - | - |
| 1778234303 | 21.67° C | 61% | 1009.4 hPa | 0 mm | - | - | - |
| 1778234000 | 21.67° C | 63% | 1009.4 hPa | 0 mm | - | - | - |
| 1778233703 | 21.67° C | 63% | 1009.4 hPa | 0 mm | - | - | - |
* Rain latest hour (hover to see other rain measurements)
** Current wind speed in m/s (hover to see current wind gust speed)